Time;durP1;ratioP1;P1;durP2;ratioP2;P2;SDS_P1;SDS_P2;PMS_P1;PMS_P2;Temp;Humidity;BMP_temperature;BMP_pressure;BME280_temperature;BME280_humidity;BME280_pressure;Samples;Min_cycle;Max_cycle;Signal;HPM_P1;HPM_P2
2022/05/11 04:02:18;;;;;;;19.50;15.67;;;14.10;99.90;;;;;;5106593;23;20527;-68
2022/05/11 04:04:45;;;;;;;17.43;15.57;;;14.10;99.90;;;;;;4972712;28;20456;-68
2022/05/11 04:07:12;;;;;;;17.37;15.67;;;14.10;99.90;;;;;;4972027;28;20456;-68
2022/05/11 04:09:39;;;;;;;17.27;15.57;;;14.10;99.90;;;;;;4970335;28;20939;-68
2022/05/11 04:12:07;;;;;;;16.77;15.00;;;14.10;99.90;;;;;;4971639;28;20709;-69
2022/05/11 04:14:33;;;;;;;18.27;15.03;;;14.10;99.90;;;;;;4971967;28;20494;-69
2022/05/11 04:17:00;;;;;;;19.43;15.83;;;14.10;99.90;;;;;;4973183;28;20526;-68
2022/05/11 04:19:29;;;;;;;18.77;16.30;;;14.10;99.90;;;;;;4975243;28;20459;-69
2022/05/11 04:21:55;;;;;;;23.73;16.40;;;14.10;99.90;;;;;;4974844;28;20526;-69
2022/05/11 04:24:22;;;;;;;18.43;16.20;;;14.20;99.90;;;;;;4980671;28;20546;-68
2022/05/11 04:26:49;;;;;;;18.17;15.47;;;14.20;99.90;;;;;;4982495;28;20455;-69
2022/05/11 04:29:16;;;;;;;19.87;17.73;;;14.20;99.90;;;;;;4982418;28;20905;-69
2022/05/11 04:31:43;;;;;;;17.60;15.80;;;14.20;99.90;;;;;;4981611;28;20487;-68
2022/05/11 04:34:11;;;;;;;18.70;16.70;;;14.30;99.90;;;;;;4982940;28;20522;-68
2022/05/11 04:36:39;;;;;;;17.90;16.10;;;14.30;99.90;;;;;;4983165;28;20574;-67
2022/05/11 04:39:07;;;;;;;18.57;16.63;;;14.30;99.90;;;;;;4975274;28;20550;-67
2022/05/11 04:41:33;;;;;;;19.13;17.13;;;14.30;99.90;;;;;;4973830;28;20491;-68
2022/05/11 04:44:00;;;;;;;17.63;15.17;;;14.30;99.90;;;;;;4974359;28;20872;-68
2022/05/11 04:46:27;;;;;;;23.03;16.93;;;14.30;99.90;;;;;;4970222;28;20546;-68
2022/05/11 04:49:16;;;;;;;18.03;16.13;;;14.30;99.90;;;;;;4961128;28;20460;-68
2022/05/11 04:51:42;;;;;;;20.90;18.70;;;14.40;99.90;;;;;;4954019;29;20984;-68
2022/05/11 04:54:09;;;;;;;21.43;17.00;;;14.40;99.90;;;;;;4953829;29;20953;-68
2022/05/11 04:56:37;;;;;;;20.47;18.33;;;14.50;99.90;;;;;;4954606;29;20880;-68
2022/05/11 04:59:05;;;;;;;20.87;18.63;;;14.50;99.90;;;;;;4954729;29;20483;-69
2022/05/11 05:01:32;;;;;;;19.50;17.50;;;14.50;99.90;;;;;;4954132;29;20516;-68
2022/05/11 05:03:59;;;;;;;19.63;17.63;;;14.50;99.90;;;;;;4954663;29;20468;-69
2022/05/11 05:06:27;;;;;;;20.70;17.40;;;14.50;99.90;;;;;;4954868;29;20543;-68
2022/05/11 05:08:55;;;;;;;21.37;18.70;;;14.50;99.90;;;;;;4953523;29;20501;-69
2022/05/11 05:11:22;;;;;;;21.20;17.47;;;14.50;99.90;;;;;;4953586;29;20539;-70
2022/05/11 05:13:50;;;;;;;21.83;17.73;;;14.60;99.90;;;;;;4954521;29;20472;-69
2022/05/11 05:16:17;;;;;;;20.27;18.17;;;14.50;99.90;;;;;;4954282;29;20499;-70
2022/05/11 05:18:43;;;;;;;21.90;18.23;;;14.50;99.90;;;;;;4954128;29;20468;-70
2022/05/11 05:21:10;;;;;;;20.93;18.80;;;14.50;99.90;;;;;;4953636;29;20895;-70
2022/05/11 05:23:37;;;;;;;20.90;18.80;;;14.50;99.90;;;;;;4953153;29;21020;-70
2022/05/11 05:26:05;;;;;;;20.00;18.00;;;14.50;99.90;;;;;;4954190;29;20547;-69
2022/05/11 05:31:18;;;;;;;20.80;18.60;;;14.60;99.90;;;;;;4953760;29;20575;-71
2022/05/11 05:33:45;;;;;;;20.27;18.07;;;14.60;99.90;;;;;;4954275;29;20468;-70
2022/05/11 05:36:12;;;;;;;20.03;18.03;;;14.60;99.90;;;;;;4969276;28;20521;-70
2022/05/11 05:38:39;;;;;;;25.77;18.50;;;14.60;99.90;;;;;;4953500;28;20545;-70
2022/05/11 05:41:08;;;;;;;23.77;19.03;;;14.60;99.90;;;;;;4953690;29;20867;-70
2022/05/11 05:43:35;;;;;;;20.13;17.20;;;14.60;99.90;;;;;;4953893;29;20476;-71
2022/05/11 05:46:02;;;;;;;19.27;17.27;;;14.70;99.90;;;;;;4954107;29;20519;-68
2022/05/11 05:48:29;;;;;;;19.57;17.53;;;14.60;99.90;;;;;;4953669;29;20469;-68
2022/05/11 05:51:03;;;;;;;20.07;17.97;;;14.70;99.90;;;;;;4953135;29;20801;-69
2022/05/11 05:53:29;;;;;;;24.40;18.83;;;14.70;99.90;;;;;;4953036;29;20952;-69
2022/05/11 05:55:56;;;;;;;20.77;18.60;;;14.70;99.90;;;;;;4954216;29;20488;-69
2022/05/11 05:58:24;;;;;;;20.17;17.97;;;14.80;99.90;;;;;;4953706;29;20472;-70
2022/05/11 06:00:50;;;;;;;20.40;17.27;;;14.90;99.90;;;;;;4953075;29;20496;-70
2022/05/11 06:03:20;;;;;;;19.77;17.07;;;14.90;99.90;;;;;;4953643;29;20468;-71
2022/05/11 06:05:46;;;;;;;20.47;17.70;;;14.90;99.90;;;;;;4953988;29;21135;-70
2022/05/11 06:08:15;;;;;;;19.33;17.30;;;14.90;99.90;;;;;;4953081;29;20865;-69
2022/05/11 06:10:41;;;;;;;21.47;19.20;;;14.90;99.90;;;;;;4953038;29;20671;-69
2022/05/11 06:13:08;;;;;;;18.57;16.13;;;14.90;99.90;;;;;;4953469;29;20890;-69
2022/05/11 06:15:38;;;;;;;23.60;18.37;;;15.00;99.90;;;;;;4953658;29;20564;-70
2022/05/11 06:18:07;;;;;;;19.33;16.67;;;15.00;99.90;;;;;;4953280;29;20497;-70
2022/05/11 06:20:34;;;;;;;18.90;16.27;;;15.10;99.90;;;;;;4952667;29;20491;-70
2022/05/11 06:23:01;;;;;;;16.83;15.23;;;15.10;99.90;;;;;;4952964;29;20464;-69
2022/05/11 06:25:28;;;;;;;18.73;16.87;;;15.10;99.90;;;;;;4962281;28;20613;-70
2022/05/11 06:27:56;;;;;;;17.23;14.63;;;15.20;99.90;;;;;;4960491;28;20461;-67
2022/05/11 06:30:22;;;;;;;16.90;15.30;;;15.20;99.90;;;;;;4952582;29;20500;-69
2022/05/11 06:32:50;;;;;;;15.90;14.50;;;15.20;99.90;;;;;;4953475;29;20500;-69
2022/05/11 06:35:17;;;;;;;15.77;14.13;;;15.20;99.90;;;;;;4952890;29;21177;-69
2022/05/11 06:37:44;;;;;;;16.20;14.70;;;15.30;99.90;;;;;;4952891;29;20531;-69
2022/05/11 06:40:14;;;;;;;17.23;15.63;;;15.30;99.90;;;;;;4951898;28;20495;-69
2022/05/11 06:42:41;;;;;;;16.43;14.83;;;15.30;99.90;;;;;;4952902;29;20464;-69
2022/05/11 06:45:09;;;;;;;16.97;15.37;;;15.40;99.90;;;;;;4953076;29;20465;-69
2022/05/11 06:47:36;;;;;;;15.60;14.10;;;15.40;99.90;;;;;;4953224;29;20727;-69
2022/05/11 06:50:05;;;;;;;16.23;14.43;;;15.40;99.90;;;;;;4952525;29;20540;-68
2022/05/11 06:52:32;;;;;;;19.87;13.23;;;15.50;99.90;;;;;;4952333;29;20472;-68
2022/05/11 07:00:29;;;;;;;14.00;12.70;;;15.60;99.90;;;;;;4953320;28;20448;-69
2022/05/11 07:02:55;;;;;;;11.87;10.73;;;15.60;99.90;;;;;;4972064;28;20466;-69
2022/05/11 07:05:23;;;;;;;13.43;12.17;;;15.60;99.90;;;;;;4971950;28;20471;-69
2022/05/11 07:07:52;;;;;;;12.20;11.10;;;15.50;99.90;;;;;;4971522;28;20498;-70
2022/05/11 07:10:19;;;;;;;12.83;11.53;;;15.50;99.90;;;;;;4971038;28;20468;-70
2022/05/11 07:12:46;;;;;;;13.73;12.50;;;15.50;99.90;;;;;;4972092;28;20526;-69
2022/05/11 07:15:15;;;;;;;13.13;11.80;;;15.60;99.90;;;;;;4971808;28;20463;-69
2022/05/11 07:17:48;;;;;;;13.13;12.00;;;15.60;99.90;;;;;;4971773;28;20495;-69
2022/05/11 07:20:17;;;;;;;11.87;10.77;;;15.70;99.90;;;;;;4971162;28;20530;-69
2022/05/11 07:22:45;;;;;;;11.63;10.63;;;15.80;99.90;;;;;;4971296;28;20468;-69
2022/05/11 07:25:15;;;;;;;10.77;9.87;;;15.90;99.90;;;;;;4971283;28;20463;-70
2022/05/11 07:27:42;;;;;;;10.93;9.93;;;16.00;99.90;;;;;;4971795;28;20464;-69
2022/05/11 07:30:12;;;;;;;10.10;9.30;;;16.10;99.90;;;;;;4971293;28;20468;-70
2022/05/11 07:32:38;;;;;;;10.37;9.57;;;16.20;99.90;;;;;;4971698;28;20464;-70
2022/05/11 07:35:06;;;;;;;9.00;8.30;;;16.20;99.90;;;;;;4971345;28;20475;-69
2022/05/11 07:37:33;;;;;;;10.60;8.17;;;16.30;99.90;;;;;;4971131;28;21008;-69
2022/05/11 07:40:01;;;;;;;9.73;8.97;;;16.40;99.90;;;;;;4970626;28;20467;-69
2022/05/11 07:42:30;;;;;;;10.20;9.30;;;16.40;99.90;;;;;;4971497;28;20562;-69
2022/05/11 07:44:56;;;;;;;9.10;8.20;;;16.50;99.90;;;;;;4971439;28;20467;-69
2022/05/11 07:47:23;;;;;;;8.13;7.60;;;16.60;99.90;;;;;;4971177;28;21014;-69
2022/05/11 07:49:50;;;;;;;8.23;7.40;;;16.60;99.90;;;;;;4968559;28;20497;-68
2022/05/11 07:52:17;;;;;;;8.47;7.77;;;16.60;99.90;;;;;;4969677;28;20488;-68
2022/05/11 07:54:44;;;;;;;7.37;6.77;;;16.60;99.90;;;;;;4974769;28;20468;-70
2022/05/11 07:59:59;;;;;;;7.53;7.00;;;16.90;99.90;;;;;;4974643;28;20502;-70
2022/05/11 08:02:27;;;;;;;6.83;6.23;;;17.10;99.90;;;;;;4974873;28;20491;-70
2022/05/11 08:04:57;;;;;;;6.13;5.70;;;17.30;99.90;;;;;;4975221;28;20498;-69
2022/05/11 08:07:26;;;;;;;6.43;5.93;;;17.40;99.90;;;;;;4974689;28;20462;-70
2022/05/11 08:09:53;;;;;;;5.97;5.67;;;17.50;99.90;;;;;;4973810;28;20963;-70
2022/05/11 08:12:21;;;;;;;6.53;6.03;;;17.60;99.90;;;;;;4974662;28;20483;-71
2022/05/11 08:14:47;;;;;;;6.00;5.50;;;17.80;99.90;;;;;;4974883;28;20510;-70
2022/05/11 08:17:15;;;;;;;5.20;4.90;;;18.00;99.90;;;;;;4975031;28;20491;-70
2022/05/11 08:19:43;;;;;;;6.50;6.10;;;18.20;99.90;;;;;;4974460;28;20467;-70
2022/05/11 08:22:10;;;;;;;6.43;5.93;;;18.40;99.90;;;;;;4974318;28;20821;-71
2022/05/11 08:24:37;;;;;;;5.30;5.03;;;18.40;99.90;;;;;;4968833;28;20549;-71
2022/05/11 08:27:05;;;;;;;5.53;5.17;;;18.50;99.90;;;;;;4974702;28;20550;-70
2022/05/11 08:35:02;;;;;;;5.40;5.10;;;18.70;99.90;;;;;;4974827;28;20523;-69
2022/05/11 08:37:29;;;;;;;5.50;5.10;;;18.80;99.90;;;;;;4974046;28;20487;-69
2022/05/11 08:39:56;;;;;;;5.90;5.30;;;18.90;99.90;;;;;;4974037;28;20550;-69
2022/05/11 08:42:26;;;;;;;4.90;4.60;;;19.00;99.90;;;;;;4974700;28;20849;-70
2022/05/11 08:44:54;;;;;;;5.37;5.07;;;19.10;99.90;;;;;;4974759;28;20490;-71
2022/05/11 08:47:32;;;;;;;4.57;4.37;;;19.20;99.90;;;;;;4974374;28;20545;-71
2022/05/11 08:50:09;;;;;;;4.80;4.57;;;19.30;99.90;;;;;;4973909;28;20473;-70
2022/05/11 08:52:43;;;;;;;4.60;4.40;;;19.50;99.90;;;;;;4973819;28;20471;-70
2022/05/11 08:55:13;;;;;;;5.23;4.80;;;19.60;99.90;;;;;;4974483;28;20551;-69
2022/05/11 08:57:41;;;;;;;5.30;3.90;;;19.70;99.90;;;;;;4974137;28;20488;-70
2022/05/11 09:00:12;;;;;;;4.10;3.90;;;19.70;99.90;;;;;;4973813;28;20515;-69
2022/05/11 09:02:48;;;;;;;4.60;4.30;;;19.70;99.90;;;;;;4973697;28;20463;-69
2022/05/11 09:05:16;;;;;;;4.17;4.07;;;19.70;99.90;;;;;;4974398;28;20559;-69
2022/05/11 09:07:47;;;;;;;4.23;3.90;;;19.60;99.90;;;;;;4973800;28;20522;-71
2022/05/11 09:10:22;;;;;;;4.17;3.97;;;19.60;99.90;;;;;;4973169;28;20456;-71
2022/05/11 09:12:53;;;;;;;4.70;4.40;;;19.70;99.90;;;;;;4973968;28;20859;-71
2022/05/11 09:15:22;;;;;;;4.77;4.57;;;19.80;99.90;;;;;;4957076;28;20906;-70
2022/05/11 09:17:48;;;;;;;5.00;4.70;;;19.90;99.90;;;;;;4954811;29;20492;-70
2022/05/11 09:20:17;;;;;;;5.07;4.77;;;20.10;99.90;;;;;;4953802;29;20472;-71
2022/05/11 09:22:58;;;;;;;4.87;4.57;;;20.10;99.90;;;;;;4953915;29;20469;-70
2022/05/11 09:25:27;;;;;;;4.93;4.73;;;20.10;99.90;;;;;;4954007;29;20801;-70
2022/05/11 09:28:15;;;;;;;4.77;4.57;;;20.20;99.90;;;;;;4954307;29;20926;-70
2022/05/11 09:30:57;;;;;;;4.93;4.70;;;20.30;99.90;;;;;;4953992;29;20489;-71
2022/05/11 09:33:26;;;;;;;6.23;4.47;;;20.30;99.90;;;;;;4954490;29;21078;-70
2022/05/11 09:35:53;;;;;;;4.30;4.10;;;20.40;99.90;;;;;;4954928;29;21031;-70
2022/05/11 09:38:34;;;;;;;4.80;4.50;;;20.50;99.90;;;;;;4953906;29;20489;-70
2022/05/11 09:41:05;;;;;;;5.47;5.17;;;20.80;99.90;;;;;;4953942;29;20518;-70
2022/05/11 09:43:35;;;;;;;5.00;4.50;;;20.90;99.90;;;;;;4954946;29;20781;-70
2022/05/11 09:46:17;;;;;;;4.77;4.57;;;21.00;99.90;;;;;;4954531;29;20469;-70
2022/05/11 09:48:57;;;;;;;5.40;4.90;;;21.10;99.90;;;;;;4954354;29;20474;-70
2022/05/11 09:51:27;;;;;;;5.00;4.70;;;21.10;99.90;;;;;;4968289;28;21054;-71
2022/05/11 09:53:57;;;;;;;4.43;4.13;;;21.20;99.90;;;;;;4960204;28;20460;-70
2022/05/11 09:56:29;;;;;;;4.17;3.93;;;21.30;99.90;;;;;;4954443;29;20464;-70
2022/05/11 09:58:56;;;;;;;4.43;4.13;;;21.60;99.90;;;;;;4953720;29;20746;-70
2022/05/11 10:01:27;;;;;;;4.60;4.40;;;21.90;99.90;;;;;;4953686;29;20497;-69
2022/05/11 10:03:58;;;;;;;4.27;3.90;;;22.10;99.90;;;;;;4954071;29;20468;-69
2022/05/11 10:06:27;;;;;;;5.43;4.13;;;22.10;99.90;;;;;;4954283;29;20584;-69
2022/05/11 10:08:54;;;;;;;4.03;3.83;;;22.20;99.90;;;;;;4953610;29;20476;-68
2022/05/11 10:11:24;;;;;;;4.53;4.33;;;22.20;99.90;;;;;;4953115;29;20527;-69
2022/05/11 10:13:58;;;;;;;4.00;3.80;;;22.20;99.90;;;;;;4953264;28;20540;-69
2022/05/11 10:22:26;;;;;;;3.97;3.77;;;22.40;99.90;;;;;;4972128;28;20451;-69
2022/05/11 10:25:08;;;;;;;4.20;4.00;;;22.40;99.90;;;;;;4972334;28;20484;-69
2022/05/11 10:27:42;;;;;;;4.20;4.10;;;22.60;99.90;;;;;;4973154;28;20464;-69
2022/05/11 10:30:17;;;;;;;4.37;4.00;;;22.90;99.90;;;;;;4971996;28;20478;-69
2022/05/11 10:33:14;;;;;;;3.73;3.53;;;23.00;99.90;;;;;;4972795;28;20467;-70
2022/05/11 10:35:51;;;;;;;4.67;4.17;;;23.00;99.90;;;;;;4970741;28;20483;-70
2022/05/11 10:38:34;;;;;;;3.77;3.70;;;22.90;99.90;;;;;;4971150;28;20491;-70
2022/05/11 10:41:11;;;;;;;4.10;3.90;;;22.80;99.90;;;;;;4970161;28;20472;-70
2022/05/11 10:43:47;;;;;;;3.93;3.73;;;22.70;99.90;;;;;;4972021;28;20471;-70
2022/05/11 10:46:18;;;;;;;4.50;4.20;;;22.80;99.90;;;;;;4972353;28;20483;-70
2022/05/11 10:49:18;;;;;;;3.93;3.70;;;22.90;99.90;;;;;;4971939;28;20495;-70
2022/05/11 10:52:06;;;;;;;4.40;4.00;;;23.00;99.90;;;;;;4971645;28;20545;-70
2022/05/11 10:54:45;;;;;;;3.40;3.30;;;23.10;99.90;;;;;;4972278;28;20590;-70
2022/05/11 10:57:19;;;;;;;3.27;3.17;;;23.20;99.90;;;;;;4972081;28;20502;-70
2022/05/11 11:00:07;;;;;;;3.20;3.00;;;23.20;99.90;;;;;;4971839;28;20467;-69
2022/05/11 11:02:56;;;;;;;3.20;3.10;;;23.20;99.90;;;;;;4972421;28;20468;-70
2022/05/11 11:05:29;;;;;;;3.63;3.37;;;23.20;99.90;;;;;;4971723;28;20861;-68
2022/05/11 11:08:05;;;;;;;4.07;3.77;;;23.20;99.90;;;;;;4972232;28;20468;-69
2022/05/11 11:10:40;;;;;;;3.60;3.40;;;23.10;99.90;;;;;;4972580;28;20463;-69
2022/05/11 11:13:37;;;;;;;3.80;3.60;;;22.90;99.90;;;;;;4974102;28;20512;-69
2022/05/11 11:16:06;;;;;;;3.80;3.50;;;22.80;99.90;;;;;;4972584;28;20586;-69
2022/05/11 11:18:35;;;;;;;3.50;3.40;;;22.80;99.90;;;;;;4977466;28;20496;-69
2022/05/11 11:21:04;;;;;;;3.40;3.30;;;22.90;99.90;;;;;;4974260;28;20487;-69
2022/05/11 11:23:36;;;;;;;3.40;3.20;;;23.00;99.90;;;;;;4972509;28;20872;-69
2022/05/11 11:26:06;;;;;;;3.67;3.47;;;23.00;99.90;;;;;;4972646;28;20494;-70
2022/05/11 11:29:12;;;;;;;4.43;4.07;;;23.10;99.90;;;;;;4975586;28;20468;-69
2022/05/11 11:32:13;;;;;;;4.80;4.50;;;23.20;99.90;;;;;;4974841;28;20475;-69
2022/05/11 11:34:43;;;;;;;5.70;5.30;;;23.10;99.90;;;;;;4975218;28;21034;-70
2022/05/11 11:37:41;;;;;;;3.90;3.63;;;23.10;99.90;;;;;;4974884;28;21003;-69
2022/05/11 11:40:23;;;;;;;4.37;3.20;;;23.00;99.90;;;;;;4974568;28;20526;-69
2022/05/11 11:42:51;;;;;;;4.13;3.90;;;23.10;99.90;;;;;;4975532;28;20952;-69
2022/05/11 11:45:59;;;;;;;4.37;4.17;;;23.20;99.90;;;;;;4975124;28;21000;-70
2022/05/11 11:48:27;;;;;;;4.57;4.37;;;23.20;99.90;;;;;;4975258;28;21028;-69
2022/05/11 11:50:55;;;;;;;4.33;4.03;;;23.30;99.90;;;;;;4968719;28;20468;-68
2022/05/11 11:53:27;;;;;;;4.30;4.00;;;23.40;99.90;;;;;;4974057;28;20510;-68
2022/05/11 11:55:54;;;;;;;3.90;3.80;;;23.50;99.90;;;;;;4975261;28;20900;-68
2022/05/11 11:58:27;;;;;;;4.30;4.10;;;23.70;99.90;;;;;;4975205;28;20879;-69
2022/05/11 12:01:07;;;;;;;5.07;4.63;;;23.80;99.90;;;;;;4974911;28;20534;-69
2022/05/11 12:03:37;;;;;;;3.87;3.77;;;23.90;99.90;;;;;;4975010;28;20900;-69
2022/05/11 12:17:27;;;;;;;4.20;4.00;;;23.60;99.90;;;;;;4974762;28;20554;-70
2022/05/11 12:20:04;;;;;;;3.97;3.80;;;23.60;99.90;;;;;;4974189;28;20467;-70
2022/05/11 12:22:32;;;;;;;4.23;3.83;;;23.60;99.90;;;;;;4974031;28;20463;-70
2022/05/11 12:25:03;;;;;;;4.37;4.17;;;23.60;99.90;;;;;;4974028;28;21065;-70
2022/05/11 12:27:33;;;;;;;3.73;3.53;;;23.70;99.90;;;;;;4974651;28;20460;-70
2022/05/11 12:30:04;;;;;;;4.50;4.30;;;23.80;99.90;;;;;;4974118;28;20510;-71
2022/05/11 12:32:35;;;;;;;4.40;3.80;;;23.70;99.90;;;;;;4974518;28;20475;-70
2022/05/11 12:35:10;;;;;;;4.50;4.20;;;23.70;99.90;;;;;;4974319;28;20577;-70
2022/05/11 12:37:38;;;;;;;3.53;3.23;;;23.80;99.90;;;;;;4973743;28;20550;-70
2022/05/11 12:40:12;;;;;;;4.50;4.30;;;23.90;99.90;;;;;;4971592;28;20468;-70
2022/05/11 12:42:42;;;;;;;4.00;3.90;;;24.10;99.90;;;;;;4974227;28;20928;-70
2022/05/11 12:45:11;;;;;;;4.10;3.77;;;24.10;99.90;;;;;;4974104;28;20574;-70
2022/05/11 12:47:43;;;;;;;4.20;4.00;;;24.10;99.90;;;;;;4974610;28;20463;-70
2022/05/11 12:50:16;;;;;;;4.60;4.30;;;24.20;99.90;;;;;;4973753;28;20467;-70
2022/05/11 12:52:43;;;;;;;4.20;4.00;;;24.10;99.90;;;;;;4973684;28;20460;-70
2022/05/11 12:55:11;;;;;;;6.17;5.40;;;24.20;99.90;;;;;;4973629;28;20483;-70
2022/05/11 12:57:40;;;;;;;4.73;4.63;;;24.30;99.90;;;;;;4974106;28;20492;-70
2022/05/11 13:00:14;;;;;;;4.97;4.77;;;24.30;99.90;;;;;;4973894;28;20838;-70
2022/05/11 13:02:42;;;;;;;5.40;5.00;;;24.20;99.90;;;;;;4973856;28;20476;-70
2022/05/11 13:05:11;;;;;;;5.20;5.00;;;24.20;99.90;;;;;;4973757;28;20479;-70
2022/05/11 13:07:43;;;;;;;4.10;4.00;;;24.30;99.90;;;;;;4974968;28;20507;-70
2022/05/11 13:10:17;;;;;;;4.80;4.40;;;24.30;99.90;;;;;;4973059;28;20468;-69
2022/05/11 13:12:47;;;;;;;3.83;3.53;;;24.40;99.90;;;;;;4973524;28;20456;-69
2022/05/11 13:15:14;;;;;;;4.13;3.80;;;24.30;99.90;;;;;;4972213;28;20496;-70
2022/05/11 13:17:44;;;;;;;3.47;3.27;;;24.30;99.90;;;;;;4973554;28;20905;-70
2022/05/11 13:20:22;;;;;;;4.30;4.03;;;24.20;99.90;;;;;;4972935;28;21115;-70
2022/05/11 13:22:50;;;;;;;3.67;3.47;;;24.10;99.90;;;;;;4972975;28;20554;-69
2022/05/11 13:25:41;;;;;;;3.90;3.70;;;24.30;99.90;;;;;;4972855;28;20595;-69
2022/05/11 13:28:14;;;;;;;3.57;3.40;;;24.40;99.90;;;;;;4973363;28;20949;-69
2022/05/11 13:30:44;;;;;;;5.60;3.80;;;24.50;99.90;;;;;;4972890;28;20491;-70
2022/05/11 13:33:37;;;;;;;3.60;3.40;;;24.40;99.90;;;;;;4973267;28;20578;-70
2022/05/11 13:36:16;;;;;;;4.33;3.90;;;24.20;99.90;;;;;;4973478;28;20546;-70
2022/05/11 13:38:51;;;;;;;3.73;3.43;;;24.20;99.90;;;;;;4972603;28;20499;-70
2022/05/11 13:41:24;;;;;;;5.70;3.30;;;24.10;99.90;;;;;;4972979;28;20587;-70
2022/05/11 13:43:54;;;;;;;3.47;3.30;;;24.10;99.90;;;;;;4973205;28;20460;-70
2022/05/11 13:46:37;;;;;;;3.20;3.00;;;24.00;99.90;;;;;;4973075;28;20571;-70
2022/05/11 13:49:24;;;;;;;2.67;2.67;;;24.00;99.90;;;;;;4972222;28;20460;-69
2022/05/11 13:51:51;;;;;;;3.73;3.50;;;24.00;99.90;;;;;;4966673;28;20463;-69
2022/05/11 13:54:25;;;;;;;3.07;2.97;;;24.10;99.90;;;;;;4971713;28;20567;-69
2022/05/11 13:57:02;;;;;;;3.00;2.80;;;24.20;99.90;;;;;;4973155;28;20467;-69
2022/05/11 13:59:30;;;;;;;2.97;2.97;;;24.30;99.90;;;;;;4973024;28;20809;-69
2022/05/11 14:01:57;;;;;;;3.73;3.43;;;24.30;99.90;;;;;;4972336;28;20964;-69
2022/05/11 14:04:26;;;;;;;2.63;2.53;;;24.40;99.90;;;;;;4973314;28;20463;-68
2022/05/11 14:07:03;;;;;;;3.10;3.00;;;24.40;99.90;;;;;;4972853;28;20478;-68
2022/05/11 14:09:32;;;;;;;3.07;2.97;;;24.50;99.90;;;;;;4972149;28;20785;-68
2022/05/11 14:12:01;;;;;;;2.83;2.70;;;24.70;99.90;;;;;;4972615;28;20463;-68
2022/05/11 14:14:27;;;;;;;2.33;2.33;;;24.60;99.90;;;;;;4972478;28;20805;-68
2022/05/11 14:16:55;;;;;;;2.87;2.77;;;24.50;99.70;;;;;;4972502;28;20472;-68
2022/05/11 14:19:23;;;;;;;2.73;2.73;;;24.40;99.80;;;;;;4972117;28;20483;-68
2022/05/11 14:21:51;;;;;;;3.00;2.90;;;24.50;99.90;;;;;;4971809;28;20987;-68
2022/05/11 14:24:19;;;;;;;2.40;2.20;;;24.50;99.70;;;;;;4971547;28;20949;-69
2022/05/11 14:26:46;;;;;;;2.80;2.60;;;24.60;99.80;;;;;;4972735;28;20616;-69
2022/05/11 14:29:14;;;;;;;3.00;2.80;;;24.60;99.40;;;;;;4972435;28;20527;-71
2022/05/11 14:31:42;;;;;;;3.00;2.80;;;24.60;99.30;;;;;;4971871;28;20467;-70
2022/05/11 14:34:13;;;;;;;2.30;2.07;;;24.50;99.80;;;;;;4972163;28;20463;-69
2022/05/11 14:36:44;;;;;;;2.60;2.40;;;24.50;99.90;;;;;;4972100;28;20474;-71
2022/05/11 14:39:11;;;;;;;7.10;2.97;;;24.60;99.50;;;;;;4967861;28;20587;-69
2022/05/11 14:41:37;;;;;;;3.07;2.53;;;24.50;98.90;;;;;;4971300;28;20460;-70
2022/05/11 14:44:04;;;;;;;2.70;2.60;;;24.50;98.90;;;;;;4972224;28;20467;-71
2022/05/11 14:46:33;;;;;;;2.50;2.30;;;24.50;99.10;;;;;;4971613;28;20487;-70
2022/05/11 14:48:59;;;;;;;2.70;2.50;;;24.50;98.90;;;;;;4972328;28;20826;-70
2022/05/11 14:51:27;;;;;;;2.57;2.37;;;24.50;99.40;;;;;;4971343;28;20805;-71
2022/05/11 14:53:54;;;;;;;2.27;2.17;;;24.50;99.30;;;;;;4971428;28;20518;-71
2022/05/11 14:56:22;;;;;;;2.70;2.50;;;24.40;99.30;;;;;;4971952;28;20487;-71
2022/05/11 15:04:21;;;;;;;2.70;2.60;;;24.40;98.80;;;;;;4971752;28;20443;-70
2022/05/11 15:06:47;;;;;;;2.53;2.13;;;24.40;98.40;;;;;;4971867;28;20460;-70
2022/05/11 15:09:14;;;;;;;2.80;2.03;;;24.30;99.00;;;;;;4963945;28;20464;-70
2022/05/11 15:14:27;;;;;;;2.27;2.17;;;24.30;98.00;;;;;;4970767;28;20454;-71
2022/05/11 15:16:54;;;;;;;2.17;2.17;;;24.40;98.10;;;;;;4972309;28;20463;-71
2022/05/11 15:19:23;;;;;;;2.53;2.53;;;24.30;98.10;;;;;;4972301;28;20484;-72
2022/05/11 15:21:49;;;;;;;3.07;2.17;;;24.20;98.20;;;;;;4972036;28;20547;-72
2022/05/11 15:24:16;;;;;;;2.30;2.30;;;24.10;98.40;;;;;;4971660;28;20464;-71
2022/05/11 15:26:43;;;;;;;2.17;2.17;;;24.00;98.60;;;;;;4972515;28;20819;-71
2022/05/11 15:29:10;;;;;;;2.10;2.00;;;24.00;98.70;;;;;;4971554;28;20463;-71
2022/05/11 15:31:36;;;;;;;2.17;2.17;;;24.10;98.40;;;;;;4971131;28;20885;-71
2022/05/11 15:34:04;;;;;;;2.47;2.37;;;24.30;98.80;;;;;;4971367;28;20474;-71
2022/05/11 15:36:32;;;;;;;2.00;1.93;;;24.40;98.90;;;;;;4971858;28;20515;-70
2022/05/11 15:38:58;;;;;;;2.00;2.00;;;24.50;98.20;;;;;;4970298;28;20487;-71
2022/05/11 15:41:25;;;;;;;1.93;1.83;;;24.70;98.30;;;;;;4970460;28;20467;-71
2022/05/11 15:43:52;;;;;;;2.00;2.00;;;24.70;97.60;;;;;;4971097;28;20984;-69
2022/05/11 15:46:19;;;;;;;1.93;1.93;;;24.70;97.60;;;;;;4971280;28;20480;-70
2022/05/11 15:48:45;;;;;;;2.10;2.00;;;24.80;97.20;;;;;;4971265;28;20460;-70
2022/05/11 15:51:14;;;;;;;2.43;2.30;;;24.70;97.20;;;;;;4971042;28;20544;-71
2022/05/11 15:53:45;;;;;;;2.00;1.90;;;24.60;97.00;;;;;;4970564;28;20852;-70
2022/05/11 15:56:11;;;;;;;2.23;2.03;;;24.50;97.10;;;;;;4971294;28;20491;-70
2022/05/11 15:58:39;;;;;;;2.10;1.97;;;24.50;97.20;;;;;;4971704;28;20861;-71
2022/05/11 16:01:13;;;;;;;2.17;2.07;;;24.50;96.70;;;;;;4970659;28;20463;-71
2022/05/11 16:03:40;;;;;;;1.80;1.70;;;24.40;96.50;;;;;;4964790;28;20468;-71
2022/05/11 16:06:06;;;;;;;2.20;2.10;;;24.50;96.90;;;;;;4970898;28;20903;-71
2022/05/11 16:08:33;;;;;;;1.70;1.60;;;24.50;97.10;;;;;;4970384;28;20950;-71
2022/05/11 16:11:02;;;;;;;2.23;1.80;;;24.50;96.80;;;;;;4970673;28;20812;-71
2022/05/11 16:13:29;;;;;;;5.47;2.00;;;24.40;96.50;;;;;;4973552;28;20801;-72
2022/05/11 16:15:56;;;;;;;2.30;2.30;;;24.30;96.60;;;;;;4996945;23;21033;-71
2022/05/11 16:21:08;;;;;;;2.63;2.40;;;24.20;97.20;;;;;;4975209;28;20446;-72
2022/05/11 16:23:35;;;;;;;2.27;2.10;;;24.30;96.90;;;;;;4974512;28;20873;-71
2022/05/11 16:26:03;;;;;;;2.87;2.33;;;24.30;97.00;;;;;;4975049;28;20542;-71
2022/05/11 16:28:30;;;;;;;2.53;2.13;;;24.30;96.70;;;;;;4974766;28;20463;-71
2022/05/11 16:30:58;;;;;;;2.10;2.10;;;24.20;96.80;;;;;;4974346;28;20474;-71
2022/05/11 16:33:26;;;;;;;1.90;1.90;;;24.10;96.70;;;;;;4974861;28;20483;-71
2022/05/11 16:35:53;;;;;;;2.17;2.10;;;24.10;96.70;;;;;;4975056;28;20487;-71
2022/05/11 16:38:20;;;;;;;2.50;2.30;;;24.10;96.70;;;;;;4973683;28;20476;-71
2022/05/11 16:40:47;;;;;;;2.30;2.20;;;24.20;97.00;;;;;;4970220;28;20901;-71
2022/05/11 16:43:15;;;;;;;2.60;2.30;;;24.20;96.90;;;;;;4974578;28;21020;-72
2022/05/11 16:45:42;;;;;;;2.07;1.97;;;24.10;96.70;;;;;;4974718;28;20491;-71
2022/05/11 16:48:10;;;;;;;2.00;1.90;;;24.10;96.60;;;;;;4974352;28;20467;-71
2022/05/11 16:50:36;;;;;;;2.70;2.60;;;24.00;96.80;;;;;;4974073;28;20487;-71
2022/05/11 16:53:04;;;;;;;2.30;2.20;;;24.00;97.00;;;;;;4974088;28;20876;-71
2022/05/11 16:55:31;;;;;;;1.87;1.87;;;23.90;97.00;;;;;;4973907;28;20499;-71
2022/05/11 16:57:58;;;;;;;2.23;2.03;;;23.90;96.90;;;;;;4974810;28;20475;-71
2022/05/11 17:00:26;;;;;;;2.00;1.83;;;23.90;97.10;;;;;;4973674;28;20543;-71
2022/05/11 17:02:53;;;;;;;1.93;1.93;;;23.90;97.30;;;;;;4974267;28;20472;-70
2022/05/11 17:05:20;;;;;;;2.10;2.03;;;23.90;97.20;;;;;;4974161;28;20849;-71
2022/05/11 17:07:46;;;;;;;2.57;2.00;;;23.90;97.40;;;;;;4973822;28;20467;-71
2022/05/11 17:10:16;;;;;;;1.80;1.80;;;23.80;96.80;;;;;;4973112;28;20519;-71
2022/05/11 17:12:43;;;;;;;2.30;2.10;;;23.70;96.80;;;;;;4974108;28;20464;-71
2022/05/11 17:15:11;;;;;;;2.67;2.13;;;23.60;97.00;;;;;;4965195;28;20543;-72
2022/05/11 17:17:39;;;;;;;1.70;1.60;;;23.70;97.20;;;;;;4973570;28;20757;-71
2022/05/11 17:20:09;;;;;;;2.77;2.27;;;23.60;96.90;;;;;;4973479;28;20534;-71
2022/05/11 17:22:36;;;;;;;3.03;2.80;;;23.50;96.80;;;;;;4973214;28;20467;-71
2022/05/11 17:25:03;;;;;;;2.40;2.30;;;23.40;96.90;;;;;;4972397;28;20894;-71
2022/05/11 17:27:30;;;;;;;2.50;2.37;;;23.30;96.90;;;;;;4973729;28;20463;-71
2022/05/11 17:29:57;;;;;;;2.03;2.03;;;23.10;97.20;;;;;;4973075;28;20948;-72
2022/05/11 17:32:23;;;;;;;2.47;2.47;;;23.00;97.10;;;;;;4973425;28;20472;-72
2022/05/11 17:34:51;;;;;;;2.10;2.00;;;23.00;97.40;;;;;;4973626;28;20468;-71
2022/05/11 17:37:18;;;;;;;3.27;2.47;;;22.90;97.60;;;;;;4972888;28;20468;-72
2022/05/11 17:39:45;;;;;;;2.50;2.40;;;22.80;97.40;;;;;;4973255;28;20492;-72
2022/05/11 17:42:12;;;;;;;2.90;2.77;;;22.70;97.50;;;;;;4973993;28;20575;-72